Time;durP1;ratioP1;P1;durP2;ratioP2;P2;SDS_P1;SDS_P2;PMS_P1;PMS_P2;Temp;Humidity;BMP_temperature;BMP_pressure;BME280_temperature;BME280_humidity;BME280_pressure;Samples;Min_cycle;Max_cycle;Signal;HPM_P1;HPM_P2
2022/05/16 00:00:38;;;;;;;6.18;1.88;;;16.30;78.60;;;;;;5033617;28;20044;-68
2022/05/16 00:03:07;;;;;;;3.95;2.05;;;16.20;78.80;;;;;;5033374;28;20342;-69
2022/05/16 00:05:36;;;;;;;4.13;1.90;;;16.30;78.90;;;;;;5033921;28;20030;-69
2022/05/16 00:08:02;;;;;;;7.47;2.30;;;16.40;78.90;;;;;;5032491;28;20053;-68
2022/05/16 00:10:28;;;;;;;5.07;2.03;;;16.60;78.30;;;;;;5023969;28;20057;-68
2022/05/16 00:12:59;;;;;;;6.82;2.17;;;16.50;78.60;;;;;;5043267;28;20041;-68
2022/05/16 00:15:25;;;;;;;5.80;1.70;;;16.50;79.40;;;;;;5036296;28;20029;-69
2022/05/16 00:17:53;;;;;;;5.20;2.30;;;16.20;80.00;;;;;;5044262;28;20415;-68
2022/05/16 00:20:19;;;;;;;5.43;2.20;;;16.10;80.10;;;;;;5034852;28;20067;-69
2022/05/16 00:22:45;;;;;;;6.95;2.13;;;16.20;79.60;;;;;;5034869;28;20037;-68
2022/05/16 00:25:15;;;;;;;5.57;1.92;;;16.40;79.30;;;;;;5045751;28;20029;-68
2022/05/16 00:27:41;;;;;;;5.38;2.00;;;16.40;79.20;;;;;;5037123;28;20032;-68
2022/05/16 00:30:13;;;;;;;4.97;1.85;;;16.30;80.00;;;;;;5036919;28;20022;-68
2022/05/16 00:32:48;;;;;;;4.53;2.03;;;16.20;80.40;;;;;;5040440;28;20032;-68
2022/05/16 00:35:14;;;;;;;6.63;2.25;;;16.20;80.90;;;;;;5038939;28;20018;-68
2022/05/16 00:37:40;;;;;;;4.82;2.03;;;16.10;81.40;;;;;;5044715;28;20025;-68
2022/05/16 00:40:07;;;;;;;5.15;2.00;;;16.00;82.40;;;;;;5035490;28;20033;-68
2022/05/16 00:42:33;;;;;;;5.38;1.95;;;16.00;81.80;;;;;;5034344;28;20333;-69
2022/05/16 00:44:58;;;;;;;4.88;1.80;;;16.10;81.00;;;;;;5035809;28;20108;-70
2022/05/16 00:47:24;;;;;;;4.15;1.95;;;16.20;81.10;;;;;;5036446;28;20036;-69
2022/05/16 00:49:53;;;;;;;5.13;1.90;;;16.20;82.20;;;;;;5042580;28;20411;-69
2022/05/16 00:52:23;;;;;;;4.55;2.15;;;16.10;81.60;;;;;;5034283;28;20063;-68
2022/05/16 00:55:00;;;;;;;6.55;2.60;;;16.10;82.80;;;;;;5040512;28;20026;-69
2022/05/16 00:57:33;;;;;;;4.28;1.85;;;15.80;84.10;;;;;;5039432;28;20067;-69
2022/05/16 01:00:07;;;;;;;3.70;1.85;;;15.60;84.60;;;;;;5018714;28;20366;-68
2022/05/16 01:05:19;;;;;;;3.80;2.10;;;15.50;85.60;;;;;;5052485;28;20642;-69
2022/05/16 01:07:45;;;;;;;3.55;1.90;;;15.40;85.60;;;;;;5056024;28;20391;-69
2022/05/16 01:10:21;;;;;;;4.30;2.10;;;15.40;85.60;;;;;;5056118;28;20036;-68
2022/05/16 01:12:52;;;;;;;5.93;2.45;;;15.60;84.80;;;;;;5054719;28;20413;-69
2022/05/16 01:15:23;;;;;;;3.53;1.92;;;15.70;84.50;;;;;;5059848;28;20038;-68
2022/05/16 01:17:50;;;;;;;4.65;1.98;;;15.90;82.40;;;;;;5050437;28;20414;-69
2022/05/16 01:20:16;;;;;;;3.35;1.75;;;16.10;81.50;;;;;;5054809;28;20029;-68
2022/05/16 01:22:49;;;;;;;4.68;2.03;;;16.50;79.60;;;;;;5053655;28;20108;-69
2022/05/16 01:25:27;;;;;;;4.57;1.73;;;16.70;78.70;;;;;;5052604;28;20035;-68
2022/05/16 01:27:59;;;;;;;4.20;1.95;;;17.00;78.50;;;;;;5055289;28;20426;-68
2022/05/16 01:30:29;;;;;;;5.45;1.92;;;17.20;77.40;;;;;;5047265;28;20033;-68
2022/05/16 01:32:55;;;;;;;4.43;1.98;;;17.40;76.70;;;;;;5055454;28;20671;-69
2022/05/16 01:35:24;;;;;;;4.25;1.90;;;17.60;76.90;;;;;;5037916;28;20029;-68
2022/05/16 01:40:34;;;;;;;5.13;2.05;;;18.00;76.30;;;;;;5062567;28;20112;-69
2022/05/16 01:43:01;;;;;;;6.05;2.22;;;18.00;76.50;;;;;;5054430;28;20304;-68
2022/05/16 01:45:27;;;;;;;5.28;2.15;;;18.00;77.10;;;;;;5056766;28;20041;-68
2022/05/16 01:47:52;;;;;;;5.78;2.30;;;18.10;77.00;;;;;;5048220;28;20017;-69
2022/05/16 01:50:18;;;;;;;4.70;2.30;;;18.10;77.30;;;;;;5057663;28;20025;-68
2022/05/16 01:52:44;;;;;;;6.43;2.35;;;18.00;77.60;;;;;;5057255;28;20040;-68
2022/05/16 01:55:13;;;;;;;4.97;2.30;;;18.00;77.70;;;;;;5057096;28;20036;-68
2022/05/16 01:57:39;;;;;;;4.97;2.40;;;18.10;77.90;;;;;;5054349;28;20032;-68
2022/05/16 02:00:09;;;;;;;4.25;2.30;;;18.00;77.90;;;;;;5033491;28;20071;-68
2022/05/16 02:02:35;;;;;;;7.53;2.60;;;18.00;78.30;;;;;;5053450;28;20056;-68
2022/05/16 02:05:00;;;;;;;6.28;2.40;;;17.90;78.50;;;;;;5050588;28;20103;-68
2022/05/16 02:07:27;;;;;;;5.47;2.45;;;17.90;78.70;;;;;;5051210;28;20537;-68
2022/05/16 02:09:53;;;;;;;4.88;2.20;;;17.90;79.00;;;;;;5053058;28;20318;-68
2022/05/16 02:12:19;;;;;;;4.93;2.60;;;17.80;79.20;;;;;;5061173;28;20028;-69
2022/05/16 02:14:45;;;;;;;5.88;3.00;;;17.80;79.70;;;;;;5055932;28;20032;-69
2022/05/16 02:17:11;;;;;;;5.35;2.55;;;17.70;79.80;;;;;;5058901;28;20426;-69
2022/05/16 02:19:36;;;;;;;6.47;2.40;;;17.70;79.80;;;;;;5053838;28;20021;-68
2022/05/16 02:24:46;;;;;;;6.30;2.63;;;17.70;79.90;;;;;;5053861;28;20086;-69
2022/05/16 02:27:18;;;;;;;6.72;2.80;;;17.80;79.90;;;;;;5052870;28;20029;-68
2022/05/16 02:29:46;;;;;;;6.68;2.65;;;17.80;80.10;;;;;;5056207;28;20033;-68
2022/05/16 02:32:13;;;;;;;6.38;2.72;;;17.80;80.30;;;;;;5054767;28;20020;-68
2022/05/16 02:34:39;;;;;;;5.05;2.53;;;17.80;80.30;;;;;;5053319;28;20773;-69
2022/05/16 02:37:06;;;;;;;5.38;2.70;;;17.80;80.30;;;;;;5058063;28;20033;-69
2022/05/16 02:39:32;;;;;;;8.40;2.58;;;17.80;80.00;;;;;;5053185;28;20021;-69
2022/05/16 02:41:58;;;;;;;6.22;2.65;;;17.80;80.80;;;;;;5054917;28;20107;-69
2022/05/16 02:44:24;;;;;;;5.85;2.80;;;17.70;80.90;;;;;;5034870;28;20132;-69
2022/05/16 02:46:50;;;;;;;6.38;2.55;;;17.70;80.70;;;;;;5059612;28;20020;-69
2022/05/16 02:49:16;;;;;;;6.80;2.78;;;17.70;80.70;;;;;;5052908;28;20056;-68
2022/05/16 02:51:42;;;;;;;7.15;2.92;;;17.50;82.10;;;;;;5052140;28;20067;-69
2022/05/16 02:54:08;;;;;;;4.88;2.50;;;17.20;82.70;;;;;;5051880;28;20110;-69
2022/05/16 02:56:37;;;;;;;6.63;2.78;;;17.10;83.10;;;;;;5051875;28;20039;-68
2022/05/16 02:59:38;;;;;;;5.65;2.88;;;17.00;83.40;;;;;;5053685;28;20037;-68
2022/05/16 03:02:06;;;;;;;7.68;2.88;;;17.00;83.70;;;;;;5051208;28;20037;-68
2022/05/16 03:04:33;;;;;;;5.30;2.72;;;17.00;83.90;;;;;;5049287;28;20032;-68
2022/05/16 03:07:01;;;;;;;5.68;2.55;;;17.10;83.50;;;;;;5054065;28;20035;-68
2022/05/16 03:09:29;;;;;;;7.15;3.35;;;17.20;83.40;;;;;;5054886;28;20021;-69
2022/05/16 03:11:58;;;;;;;8.18;3.05;;;17.10;83.70;;;;;;5051554;28;20056;-69
2022/05/16 03:14:30;;;;;;;5.20;2.78;;;17.10;83.60;;;;;;5051877;28;20040;-66
2022/05/16 03:16:56;;;;;;;6.68;3.20;;;17.00;84.10;;;;;;5053375;28;20180;-68
2022/05/16 03:19:24;;;;;;;4.82;2.50;;;16.90;84.90;;;;;;5052728;28;20104;-68
2022/05/16 03:21:50;;;;;;;5.68;2.70;;;16.80;85.30;;;;;;5052367;28;20033;-68
2022/05/16 03:24:16;;;;;;;6.03;2.67;;;16.80;85.20;;;;;;5054903;28;20024;-68
2022/05/16 03:26:41;;;;;;;5.55;2.97;;;16.90;84.80;;;;;;5053908;28;20342;-68
2022/05/16 03:29:10;;;;;;;8.52;2.90;;;17.10;84.30;;;;;;5058939;28;20036;-67
2022/05/16 03:31:35;;;;;;;7.90;2.60;;;17.20;84.00;;;;;;5049642;28;20426;-67
2022/05/16 03:34:01;;;;;;;8.43;3.35;;;17.30;83.50;;;;;;5050280;28;20036;-67
2022/05/16 03:36:27;;;;;;;6.28;2.80;;;17.40;82.60;;;;;;5051345;28;20025;-70
2022/05/16 03:41:42;;;;;;;8.10;2.92;;;17.60;82.30;;;;;;5051995;28;20039;-68
2022/05/16 03:44:08;;;;;;;5.55;2.85;;;17.60;82.90;;;;;;5052026;28;20061;-68
2022/05/16 03:46:34;;;;;;;5.93;2.85;;;17.50;83.70;;;;;;5052137;28;20424;-68
2022/05/16 03:48:59;;;;;;;6.72;2.80;;;17.40;83.60;;;;;;5052371;28;20044;-68
2022/05/16 03:51:28;;;;;;;7.88;2.92;;;17.40;84.10;;;;;;5055873;28;20129;-68
2022/05/16 03:53:54;;;;;;;5.70;3.00;;;17.30;84.50;;;;;;5057560;28;20031;-68
2022/05/16 03:56:27;;;;;;;4.47;2.63;;;17.20;85.00;;;;;;5066106;28;20041;-68
2022/05/16 03:58:54;;;;;;;5.65;3.03;;;17.10;85.00;;;;;;5060050;28;20028;-68
2022/05/16 04:01:21;;;;;;;6.20;2.83;;;17.20;84.50;;;;;;5057223;28;20438;-68
2022/05/16 04:03:48;;;;;;;6.90;3.08;;;17.20;84.30;;;;;;5055048;28;20029;-68
2022/05/16 04:06:17;;;;;;;5.70;2.90;;;17.20;84.10;;;;;;5052247;28;20045;-68
2022/05/16 04:08:43;;;;;;;6.53;3.20;;;17.30;84.00;;;;;;5061769;28;20314;-68
2022/05/16 04:11:11;;;;;;;5.85;3.33;;;17.30;83.80;;;;;;5056383;28;20161;-67
2022/05/16 04:13:37;;;;;;;5.75;3.08;;;17.40;83.70;;;;;;5059841;28;20329;-68
2022/05/16 04:16:06;;;;;;;9.57;3.10;;;17.50;83.40;;;;;;5038713;28;20021;-68
2022/05/16 04:18:32;;;;;;;7.65;3.15;;;17.50;83.90;;;;;;5055545;28;20035;-68
2022/05/16 04:20:58;;;;;;;5.75;2.95;;;17.50;84.20;;;;;;5057531;28;20381;-68
2022/05/16 04:23:24;;;;;;;5.78;3.17;;;17.50;84.00;;;;;;5053275;28;20092;-68
2022/05/16 04:25:53;;;;;;;6.93;2.78;;;17.60;83.70;;;;;;5058246;28;20029;-68
2022/05/16 04:28:18;;;;;;;6.63;2.85;;;17.60;84.30;;;;;;5054676;28;20105;-68
2022/05/16 04:30:44;;;;;;;5.22;2.80;;;17.50;84.90;;;;;;5056635;28;20123;-68
2022/05/16 04:33:10;;;;;;;5.35;3.00;;;17.40;85.40;;;;;;5054703;28;20056;-68
2022/05/16 04:35:36;;;;;;;6.23;3.10;;;17.30;85.70;;;;;;5058877;28;20025;-68
2022/05/16 04:38:04;;;;;;;5.38;2.97;;;17.10;86.70;;;;;;5067806;28;20025;-68
2022/05/16 04:40:30;;;;;;;6.00;3.08;;;17.00;87.30;;;;;;5054139;28;20025;-69
2022/05/16 04:42:57;;;;;;;6.75;2.78;;;16.90;87.30;;;;;;5060610;28;20414;-68
2022/05/16 04:45:25;;;;;;;6.88;2.97;;;17.00;87.40;;;;;;5056507;28;20037;-68
2022/05/16 04:47:59;;;;;;;6.13;3.10;;;17.10;87.70;;;;;;5053895;28;20112;-69
2022/05/16 04:50:28;;;;;;;6.03;2.80;;;17.10;87.60;;;;;;5053558;28;20096;-67
2022/05/16 04:52:54;;;;;;;4.75;2.75;;;17.10;87.80;;;;;;5051608;28;20120;-68
2022/05/16 04:55:21;;;;;;;6.85;3.20;;;17.00;88.20;;;;;;5053481;28;20112;-68
2022/05/16 04:57:47;;;;;;;6.00;2.78;;;17.10;87.90;;;;;;5053530;28;20025;-68
2022/05/16 05:00:18;;;;;;;8.57;3.45;;;17.10;87.90;;;;;;5037618;28;20432;-68
2022/05/16 05:02:44;;;;;;;6.13;2.90;;;17.20;88.30;;;;;;5054830;28;20049;-68
2022/05/16 05:05:11;;;;;;;6.28;2.92;;;17.20;88.70;;;;;;5037842;28;20071;-68
2022/05/16 05:07:38;;;;;;;7.10;3.42;;;17.20;89.10;;;;;;5055272;28;20029;-68
2022/05/16 05:15:38;;;;;;;5.97;3.13;;;17.20;89.20;;;;;;5053953;28;20052;-68
2022/05/16 05:18:05;;;;;;;6.50;3.17;;;17.10;89.20;;;;;;5055659;28;20086;-68
2022/05/16 05:20:32;;;;;;;7.95;3.28;;;17.10;89.60;;;;;;5067000;28;20020;-68
2022/05/16 05:22:59;;;;;;;5.93;2.90;;;17.10;89.90;;;;;;5068595;28;20021;-68
2022/05/16 05:25:25;;;;;;;6.28;3.25;;;17.10;90.40;;;;;;5059788;28;20024;-69
2022/05/16 05:27:54;;;;;;;5.95;3.25;;;17.10;90.50;;;;;;5059629;28;20402;-68
2022/05/16 05:30:23;;;;;;;6.55;3.13;;;17.20;90.40;;;;;;5063090;28;20028;-68
2022/05/16 05:32:49;;;;;;;7.93;3.10;;;17.30;90.40;;;;;;5056127;28;20041;-68
2022/05/16 05:35:16;;;;;;;5.40;2.90;;;17.40;90.00;;;;;;5051367;28;20033;-67
2022/05/16 05:37:42;;;;;;;5.85;2.85;;;17.70;89.40;;;;;;5054597;28;20032;-67
2022/05/16 05:40:09;;;;;;;6.85;3.13;;;17.90;88.10;;;;;;5045262;28;20460;-68
2022/05/16 05:42:35;;;;;;;7.80;3.13;;;18.20;87.30;;;;;;5056045;28;20029;-68
2022/05/16 05:45:01;;;;;;;5.72;3.38;;;18.40;87.40;;;;;;5055814;28;20029;-68
2022/05/16 05:47:27;;;;;;;6.40;3.10;;;18.40;86.60;;;;;;5057402;28;20044;-68
2022/05/16 05:49:59;;;;;;;5.18;3.05;;;18.60;86.20;;;;;;5054619;28;20025;-68
2022/05/16 05:52:28;;;;;;;6.75;3.25;;;18.80;85.10;;;;;;5057017;28;20048;-68
2022/05/16 05:54:54;;;;;;;7.13;3.10;;;19.00;86.20;;;;;;5055495;28;20422;-68
2022/05/16 05:57:20;;;;;;;6.65;2.92;;;18.90;87.00;;;;;;5057063;28;20043;-68
2022/05/16 05:59:49;;;;;;;6.85;2.83;;;18.90;86.20;;;;;;5056029;28;20070;-68
2022/05/16 06:02:16;;;;;;;6.25;2.88;;;19.00;85.60;;;;;;5056224;28;20048;-68
2022/05/16 06:04:41;;;;;;;7.00;2.92;;;19.10;84.50;;;;;;5054753;28;20307;-68
2022/05/16 06:07:07;;;;;;;5.95;3.00;;;19.40;83.00;;;;;;5054907;28;20095;-68
2022/05/16 06:09:33;;;;;;;6.07;3.13;;;19.50;82.70;;;;;;5050571;28;20028;-68
2022/05/16 06:11:59;;;;;;;6.20;2.65;;;19.60;82.40;;;;;;5049429;28;20025;-68
2022/05/16 06:14:26;;;;;;;5.85;3.17;;;19.70;81.80;;;;;;5055516;28;20032;-68
2022/05/16 06:16:53;;;;;;;8.18;3.13;;;19.60;82.00;;;;;;5055299;28;20120;-68
2022/05/16 06:19:18;;;;;;;6.18;2.92;;;19.60;81.90;;;;;;5054906;28;20057;-68
2022/05/16 06:21:48;;;;;;;5.20;2.88;;;19.70;81.40;;;;;;5055598;28;20436;-68
2022/05/16 06:26:59;;;;;;;5.70;3.00;;;19.60;82.10;;;;;;5045405;28;20501;-68
2022/05/16 06:29:26;;;;;;;6.13;3.05;;;19.60;81.50;;;;;;5054391;28;20025;-68
2022/05/16 06:31:55;;;;;;;6.90;3.20;;;19.50;82.00;;;;;;5055180;28;20027;-69
2022/05/16 06:34:21;;;;;;;5.03;2.90;;;19.40;83.00;;;;;;5053253;28;20029;-68
2022/05/16 06:36:47;;;;;;;6.15;3.28;;;19.40;82.70;;;;;;5050634;28;20104;-69
2022/05/16 06:39:13;;;;;;;6.07;3.10;;;19.20;82.50;;;;;;5052995;28;20436;-69
2022/05/16 06:41:39;;;;;;;6.63;3.13;;;19.10;83.50;;;;;;5054921;28;20064;-69
2022/05/16 06:44:05;;;;;;;6.85;3.22;;;19.00;84.60;;;;;;5048766;28;20052;-68
2022/05/16 06:46:31;;;;;;;6.07;3.40;;;18.80;84.30;;;;;;5046630;28;20025;-68
2022/05/16 06:48:56;;;;;;;8.38;3.10;;;18.70;84.90;;;;;;5054209;28;20029;-68
2022/05/16 06:51:22;;;;;;;6.22;2.92;;;18.70;85.20;;;;;;5051467;28;20091;-68
2022/05/16 06:53:51;;;;;;;7.88;3.13;;;18.80;84.80;;;;;;5052254;28;20036;-68
2022/05/16 06:56:17;;;;;;;7.18;3.25;;;18.90;84.90;;;;;;5043835;28;20406;-68
2022/05/16 06:58:43;;;;;;;8.68;2.80;;;19.20;85.50;;;;;;5035565;28;20032;-68
2022/05/16 07:01:08;;;;;;;6.47;2.80;;;19.80;82.40;;;;;;5040144;28;20045;-68
2022/05/16 07:03:35;;;;;;;7.63;3.28;;;20.30;81.50;;;;;;5046486;28;20385;-69
2022/05/16 07:06:01;;;;;;;5.78;2.78;;;20.80;81.20;;;;;;5030459;28;20017;-68
2022/05/16 07:08:27;;;;;;;5.80;3.00;;;21.00;80.00;;;;;;5036858;28;20515;-67
2022/05/16 07:10:53;;;;;;;6.28;3.10;;;21.20;79.30;;;;;;5027438;28;20072;-69
2022/05/16 07:13:19;;;;;;;6.20;3.13;;;21.30;79.40;;;;;;5026807;28;20048;-68
2022/05/16 07:15:45;;;;;;;5.50;2.65;;;21.40;79.40;;;;;;5025130;28;20120;-68
2022/05/16 07:18:11;;;;;;;5.65;3.10;;;21.60;78.20;;;;;;5029097;28;20032;-68
2022/05/16 07:20:38;;;;;;;5.05;2.60;;;21.60;78.20;;;;;;5022604;28;20057;-68
2022/05/16 07:23:07;;;;;;;9.35;3.10;;;21.80;77.90;;;;;;5032976;28;20049;-68
2022/05/16 07:27:56;;;;;;;9.05;2.80;;;22.00;78.90;;;;;;5032121;28;20075;-68
2022/05/16 07:28:19;;;;;;;6.53;2.78;;;22.20;77.40;;;;;;5027691;28;20032;-68
2022/05/16 07:30:45;;;;;;;5.28;2.67;;;22.20;77.10;;;;;;5053779;28;20030;-68
2022/05/16 07:33:11;;;;;;;5.32;2.67;;;22.00;77.50;;;;;;5029435;28;20035;-68
2022/05/16 07:35:38;;;;;;;4.93;2.50;;;21.90;78.00;;;;;;5033906;28;20047;-68
2022/05/16 07:38:05;;;;;;;5.55;2.65;;;22.00;78.20;;;;;;5034531;28;20034;-68
2022/05/16 07:40:34;;;;;;;7.57;2.47;;;22.00;78.20;;;;;;5027233;28;20504;-67
2022/05/16 07:43:00;;;;;;;6.30;2.38;;;22.60;77.40;;;;;;5029095;28;20049;-68
2022/05/16 07:45:26;;;;;;;6.55;2.40;;;23.70;74.50;;;;;;5026849;28;20025;-68
2022/05/16 07:47:52;;;;;;;5.13;2.75;;;24.50;71.70;;;;;;5039738;28;20017;-68
2022/05/16 07:50:18;;;;;;;6.10;2.30;;;24.70;72.10;;;;;;5051712;28;20037;-68
2022/05/16 07:52:48;;;;;;;4.60;2.33;;;24.70;71.40;;;;;;5054419;28;20040;-68
2022/05/16 07:55:19;;;;;;;5.68;2.70;;;24.60;72.40;;;;;;5052479;28;20291;-68
2022/05/16 07:57:45;;;;;;;4.00;2.10;;;25.30;70.10;;;;;;5055075;28;20124;-68
2022/05/16 08:00:11;;;;;;;5.78;2.40;;;25.50;70.40;;;;;;5052745;28;20422;-68
2022/05/16 08:02:39;;;;;;;4.78;2.10;;;25.90;70.50;;;;;;5055070;28;20342;-68
2022/05/16 08:05:09;;;;;;;5.78;2.80;;;26.20;68.90;;;;;;5050851;28;20502;-68
2022/05/16 08:10:28;;;;;;;4.65;2.70;;;26.10;68.70;;;;;;5055476;28;20102;-68
2022/05/16 08:10:29;;;;;;;5.95;2.70;;;25.90;68.80;;;;;;5053136;28;20025;-68
2022/05/16 08:13:00;;;;;;;6.07;2.60;;;26.00;69.10;;;;;;5055177;28;20052;-68
2022/05/16 08:15:26;;;;;;;5.40;2.80;;;25.70;69.90;;;;;;5054036;28;20025;-68
2022/05/16 08:17:52;;;;;;;5.88;2.33;;;26.20;69.60;;;;;;5053806;28;20033;-68
2022/05/16 08:20:19;;;;;;;4.38;2.28;;;26.80;67.70;;;;;;5054140;28;20025;-68
2022/05/16 08:22:45;;;;;;;6.18;2.25;;;27.10;66.50;;;;;;5055292;28;20029;-68
2022/05/16 08:25:11;;;;;;;6.43;2.40;;;27.50;66.90;;;;;;5053482;28;20079;-68
2022/05/16 08:27:36;;;;;;;6.05;2.40;;;28.00;66.00;;;;;;5052778;28;20037;-68
2022/05/16 08:30:03;;;;;;;5.28;2.47;;;28.50;64.00;;;;;;5053923;28;20040;-68
2022/05/16 08:32:29;;;;;;;5.95;2.15;;;28.20;63.90;;;;;;5055190;28;20484;-68
2022/05/16 08:35:00;;;;;;;5.75;2.08;;;28.00;66.90;;;;;;5054176;28;20037;-67
2022/05/16 08:40:14;;;;;;;7.82;2.88;;;27.70;62.50;;;;;;5057218;28;20292;-68
2022/05/16 08:42:54;;;;;;;6.45;2.85;;;27.30;63.80;;;;;;5058075;28;20032;-68
2022/05/16 08:45:39;;;;;;;5.57;2.70;;;26.80;64.80;;;;;;5058640;28;20337;-70
2022/05/16 08:48:35;;;;;;;6.20;2.78;;;25.70;66.80;;;;;;5058120;28;20033;-69
2022/05/16 08:51:11;;;;;;;7.78;3.08;;;25.80;67.50;;;;;;5057207;28;20017;-68
2022/05/16 08:54:05;;;;;;;11.20;3.25;;;25.60;67.70;;;;;;5058416;28;20028;-68
2022/05/16 08:56:33;;;;;;;7.53;2.80;;;25.40;68.00;;;;;;5058354;28;20159;-68
2022/05/16 08:59:09;;;;;;;7.00;2.40;;;25.50;69.20;;;;;;5057277;28;20115;-68
2022/05/16 09:01:40;;;;;;;6.43;3.58;;;26.40;68.50;;;;;;5057881;28;20068;-68
2022/05/16 09:04:18;;;;;;;5.10;2.85;;;26.40;68.90;;;;;;5058203;28;20151;-68
2022/05/16 09:07:02;;;;;;;5.25;2.60;;;25.40;70.40;;;;;;5056578;28;20021;-68
2022/05/16 09:09:55;;;;;;;5.95;2.75;;;24.80;72.70;;;;;;5058119;28;20021;-68
2022/05/16 09:12:40;;;;;;;7.30;2.60;;;25.30;73.70;;;;;;5055633;28;20048;-68
2022/05/16 09:15:23;;;;;;;5.30;2.58;;;25.50;70.90;;;;;;5058003;28;20081;-68
2022/05/16 09:18:22;;;;;;;6.95;2.83;;;26.10;71.30;;;;;;5057565;28;20048;-68
2022/05/16 09:21:08;;;;;;;6.20;2.70;;;26.70;68.00;;;;;;5056787;28;20088;-68
2022/05/16 09:23:47;;;;;;;7.85;3.40;;;26.40;66.80;;;;;;5057879;28;20479;-68
2022/05/16 09:26:20;;;;;;;9.25;3.58;;;25.60;68.60;;;;;;5053064;28;20043;-68
2022/05/16 09:29:16;;;;;;;8.13;3.67;;;24.90;69.70;;;;;;5057820;28;20318;-68
2022/05/16 09:31:44;;;;;;;11.20;3.92;;;24.00;71.40;;;;;;5014012;28;20472;-68
2022/05/16 09:34:10;;;;;;;8.50;3.60;;;23.50;73.30;;;;;;5057017;28;20476;-68
2022/05/16 09:36:43;;;;;;;11.23;4.10;;;23.20;75.30;;;;;;5056256;28;20421;-68
2022/05/16 09:39:12;;;;;;;9.55;4.15;;;22.90;74.40;;;;;;5057609;28;20048;-68
2022/05/16 09:41:43;;;;;;;9.30;4.50;;;22.70;76.00;;;;;;5056433;28;20413;-68
2022/05/16 09:44:29;;;;;;;9.20;3.78;;;22.40;75.80;;;;;;5057265;28;20123;-68
2022/05/16 09:47:21;;;;;;;7.80;4.18;;;22.10;76.60;;;;;;5056825;28;20025;-68
2022/05/16 09:50:02;;;;;;;10.18;4.53;;;22.10;77.20;;;;;;5056213;28;20711;-68
2022/05/16 09:52:30;;;;;;;8.02;4.15;;;22.10;77.40;;;;;;5055423;28;20074;-68
2022/05/16 09:55:10;;;;;;;6.85;3.70;;;22.20;77.60;;;;;;5056837;28;20032;-68
2022/05/16 09:58:12;;;;;;;9.77;4.00;;;22.50;74.30;;;;;;5057240;28;20032;-68
2022/05/16 10:00:43;;;;;;;13.32;4.95;;;22.20;74.60;;;;;;5052925;28;20029;-68
2022/05/16 10:03:32;;;;;;;11.30;3.80;;;22.10;76.30;;;;;;5039400;28;20318;-68
2022/05/16 10:06:08;;;;;;;11.35;4.60;;;22.10;76.60;;;;;;5054222;28;20017;-68
2022/05/16 10:08:45;;;;;;;10.45;4.47;;;22.20;76.30;;;;;;5056963;28;20060;-68
2022/05/16 10:11:31;;;;;;;9.13;4.47;;;22.40;76.60;;;;;;5057050;28;20021;-68
2022/05/16 10:13:57;;;;;;;11.07;4.35;;;22.40;76.80;;;;;;5055533;28;20078;-68
2022/05/16 10:16:27;;;;;;;11.00;4.60;;;22.20;75.80;;;;;;5056457;28;20061;-68
2022/05/16 10:19:01;;;;;;;11.55;4.30;;;21.90;76.90;;;;;;5056947;28;20409;-68
2022/05/16 10:21:32;;;;;;;8.60;4.65;;;21.70;78.90;;;;;;5055430;28;20060;-68
2022/05/16 10:24:03;;;;;;;9.48;4.75;;;21.30;80.10;;;;;;5056712;28;20040;-67
2022/05/16 10:26:34;;;;;;;12.20;4.95;;;21.00;78.70;;;;;;5055865;28;20758;-68
2022/05/16 10:29:08;;;;;;;15.93;6.57;;;20.80;79.30;;;;;;5056057;28;20029;-68
2022/05/16 10:34:53;;;;;;;12.18;5.43;;;20.60;79.80;;;;;;5055001;28;20444;-68
2022/05/16 10:37:20;;;;;;;12.73;5.00;;;20.30;81.80;;;;;;5040621;28;20025;-67
2022/05/16 10:39:52;;;;;;;10.48;5.43;;;19.70;84.40;;;;;;5056487;28;20017;-68
2022/05/16 10:42:28;;;;;;;10.27;5.18;;;19.20;87.20;;;;;;5056424;28;20025;-68
2022/05/16 10:45:25;;;;;;;14.13;6.63;;;18.90;89.30;;;;;;5055966;28;20021;-68
2022/05/16 10:47:51;;;;;;;13.85;6.75;;;18.60;91.40;;;;;;5051570;28;20137;-68
2022/05/16 10:50:27;;;;;;;10.93;5.88;;;18.00;92.70;;;;;;5054326;28;20025;-68
2022/05/16 10:52:57;;;;;;;15.38;6.43;;;17.50;94.80;;;;;;5038322;28;20098;-67
2022/05/16 10:55:24;;;;;;;13.80;6.30;;;17.20;94.20;;;;;;5055918;28;20029;-67
2022/05/16 10:58:08;;;;;;;11.32;5.93;;;17.00;95.60;;;;;;5055262;28;20075;-67
2022/05/16 11:01:10;;;;;;;15.32;6.60;;;16.80;94.40;;;;;;5055727;28;20025;-67
2022/05/16 11:03:51;;;;;;;12.50;5.65;;;16.80;94.00;;;;;;5055863;28;20033;-67
2022/05/16 11:06:35;;;;;;;10.73;5.78;;;16.70;96.60;;;;;;5052913;28;20492;-67
2022/05/16 11:09:09;;;;;;;12.40;6.05;;;16.70;95.90;;;;;;5055406;28;20099;-67
2022/05/16 11:11:59;;;;;;;13.48;6.82;;;16.70;95.70;;;;;;5055023;28;20065;-67
2022/05/16 11:15:06;;;;;;;11.90;6.07;;;16.60;95.20;;;;;;5051239;28;20043;-67
2022/05/16 11:17:42;;;;;;;13.50;5.93;;;16.50;96.00;;;;;;5050424;28;20084;-68
2022/05/16 11:20:09;;;;;;;13.70;5.68;;;16.40;95.40;;;;;;5051199;28;20052;-67
2022/05/16 11:22:40;;;;;;;9.27;5.05;;;16.30;96.10;;;;;;5055808;28;20027;-67
2022/05/16 11:25:08;;;;;;;11.32;5.95;;;16.30;95.60;;;;;;5054724;28;20036;-67
2022/05/16 11:28:14;;;;;;;10.65;5.13;;;16.30;96.00;;;;;;5044305;28;20044;-67
2022/05/16 11:31:03;;;;;;;12.35;5.00;;;16.20;96.10;;;;;;5054764;28;20426;-67
2022/05/16 11:33:55;;;;;;;12.77;5.63;;;15.90;95.20;;;;;;5055791;28;20422;-68
2022/05/16 11:36:45;;;;;;;10.25;5.25;;;15.60;94.50;;;;;;5053128;28;20030;-67
2022/05/16 11:39:46;;;;;;;14.48;6.20;;;15.50;93.80;;;;;;5054901;28;20021;-70
2022/05/16 11:42:45;;;;;;;13.18;6.15;;;15.60;92.70;;;;;;5010608;28;20330;-70
2022/05/16 11:45:37;;;;;;;13.82;6.72;;;15.70;91.30;;;;;;5054420;28;20017;-70
2022/05/16 11:48:30;;;;;;;12.90;4.97;;;15.90;90.40;;;;;;5054856;28;20314;-69
2022/05/16 11:50:58;;;;;;;9.55;5.53;;;16.10;93.30;;;;;;5035692;28;20121;-70
2022/05/16 11:53:44;;;;;;;11.15;5.10;;;16.20;92.00;;;;;;5055557;28;20445;-69
2022/05/16 12:02:18;;;;;;;10.70;5.40;;;16.60;92.40;;;;;;5053602;28;20056;-69
2022/05/16 12:04:53;;;;;;;12.60;6.15;;;16.70;92.50;;;;;;5053880;28;20022;-69
2022/05/16 12:07:46;;;;;;;10.88;5.38;;;17.00;90.90;;;;;;5053930;28;20032;-69
2022/05/16 12:10:14;;;;;;;8.80;4.93;;;17.30;92.70;;;;;;5057217;28;20036;-69
2022/05/16 12:12:43;;;;;;;10.52;4.80;;;17.30;94.90;;;;;;5040430;28;20338;-69
2022/05/16 12:15:23;;;;;;;10.98;5.25;;;17.20;95.60;;;;;;5058231;28;20096;-70
2022/05/16 12:17:54;;;;;;;11.35;5.22;;;17.20;95.50;;;;;;5049950;28;20036;-69
2022/05/16 12:20:44;;;;;;;9.10;4.60;;;17.20;95.40;;;;;;5057600;28;20025;-69
2022/05/16 12:23:13;;;;;;;9.35;4.65;;;17.00;96.60;;;;;;5056328;28;20036;-69
2022/05/16 12:25:41;;;;;;;10.23;5.05;;;16.90;95.80;;;;;;5056369;28;20033;-69
2022/05/16 12:28:13;;;;;;;12.75;5.82;;;16.90;95.80;;;;;;5056351;28;20048;-69
2022/05/16 12:30:56;;;;;;;11.43;5.85;;;17.10;95.60;;;;;;5057940;28;20079;-69
2022/05/16 12:33:49;;;;;;;10.45;5.75;;;17.10;95.70;;;;;;5058682;28;20032;-69
2022/05/16 12:36:21;;;;;;;14.18;5.80;;;17.20;95.10;;;;;;5055688;28;20037;-68
2022/05/16 12:38:57;;;;;;;11.07;5.10;;;17.70;96.20;;;;;;5058383;28;20029;-69
2022/05/16 12:41:51;;;;;;;9.63;5.43;;;18.10;96.70;;;;;;5056981;28;20383;-68
2022/05/16 12:44:59;;;;;;;10.30;4.60;;;18.80;96.50;;;;;;5058588;28;20036;-69
2022/05/16 12:47:46;;;;;;;9.88;4.63;;;19.70;94.90;;;;;;5041992;28;20083;-69
2022/05/16 12:50:30;;;;;;;8.63;4.22;;;20.70;94.30;;;;;;5038393;28;20116;-68
2022/05/16 12:53:20;;;;;;;10.73;4.25;;;21.80;92.20;;;;;;5048059;28;20091;-68
2022/05/16 12:55:45;;;;;;;9.82;3.70;;;22.70;87.90;;;;;;5054797;28;20025;-68
2022/05/16 12:58:25;;;;;;;6.85;2.90;;;23.20;86.50;;;;;;5040390;28;20490;-68
2022/05/16 13:00:56;;;;;;;7.15;3.03;;;22.90;84.40;;;;;;5056979;28;20156;-68
2022/05/16 13:03:56;;;;;;;7.80;3.28;;;23.10;84.50;;;;;;5057352;28;20029;-69
2022/05/16 13:06:33;;;;;;;8.80;3.00;;;23.40;85.20;;;;;;5057122;28;20025;-68
2022/05/16 13:09:13;;;;;;;6.72;2.92;;;23.20;82.20;;;;;;5055144;28;20058;-68
2022/05/16 13:12:22;;;;;;;8.70;3.28;;;23.40;83.30;;;;;;5058111;28;20021;-68
2022/05/16 13:14:58;;;;;;;7.13;3.30;;;23.10;80.80;;;;;;4990384;28;20117;-68
2022/05/16 13:17:49;;;;;;;8.27;3.08;;;22.90;82.50;;;;;;5041895;28;20095;-68
2022/05/16 13:20:26;;;;;;;7.90;3.13;;;22.70;82.40;;;;;;5056498;28;20418;-68
2022/05/16 13:22:54;;;;;;;6.60;2.78;;;22.80;83.40;;;;;;5055466;28;20064;-68
2022/05/16 13:25:23;;;;;;;4.88;2.83;;;22.80;81.10;;;;;;5057130;28;20029;-68
2022/05/16 13:30:43;;;;;;;7.10;3.28;;;23.70;81.60;;;;;;5057121;28;20067;-68
2022/05/16 13:33:31;;;;;;;8.90;3.60;;;23.60;80.10;;;;;;5057698;28;20101;-68
2022/05/16 13:36:21;;;;;;;8.10;3.28;;;24.40;80.00;;;;;;5055206;28;20083;-68
2022/05/16 13:39:11;;;;;;;6.38;3.10;;;24.20;80.20;;;;;;5054912;28;20057;-68
2022/05/16 13:41:38;;;;;;;7.78;3.42;;;23.80;80.20;;;;;;5039812;28;20025;-68
2022/05/16 13:44:05;;;;;;;8.52;3.38;;;23.60;83.70;;;;;;5056609;28;20359;-68